sensor_id;sensor_type;location;lat;lon;timestamp;temperature;humidity
61912;DHT22;49973;52.084;5.412;2022-11-14T00:00:52;3.90;99.90
61912;DHT22;49973;52.084;5.412;2022-11-14T00:03:39;3.90;99.90
61912;DHT22;49973;52.084;5.412;2022-11-14T00:06:26;4.00;99.90
61912;DHT22;49973;52.084;5.412;2022-11-14T00:09:13;4.00;99.90
61912;DHT22;49973;52.084;5.412;2022-11-14T00:12:01;4.10;99.90
61912;DHT22;49973;52.084;5.412;2022-11-14T00:14:49;4.20;99.90
61912;DHT22;49973;52.084;5.412;2022-11-14T00:17:36;4.30;99.90
61912;DHT22;49973;52.084;5.412;2022-11-14T00:20:24;4.40;99.90
61912;DHT22;49973;52.084;5.412;2022-11-14T00:23:11;4.50;99.90
61912;DHT22;49973;52.084;5.412;2022-11-14T00:25:58;4.60;99.90
61912;DHT22;49973;52.084;5.412;2022-11-14T00:28:45;4.70;99.90
61912;DHT22;49973;52.084;5.412;2022-11-14T00:31:34;4.70;99.90
61912;DHT22;49973;52.084;5.412;2022-11-14T00:34:21;4.80;99.90
61912;DHT22;49973;52.084;5.412;2022-11-14T00:37:08;4.80;99.90
61912;DHT22;49973;52.084;5.412;2022-11-14T00:39:55;4.80;99.90
61912;DHT22;49973;52.084;5.412;2022-11-14T00:42:42;4.80;99.90
61912;DHT22;49973;52.084;5.412;2022-11-14T00:45:29;4.90;99.90
61912;DHT22;49973;52.084;5.412;2022-11-14T00:48:17;4.90;99.90
61912;DHT22;49973;52.084;5.412;2022-11-14T00:51:05;4.90;99.90
61912;DHT22;49973;52.084;5.412;2022-11-14T00:53:52;4.90;99.90
61912;DHT22;49973;52.084;5.412;2022-11-14T00:56:39;5.00;99.90
61912;DHT22;49973;52.084;5.412;2022-11-14T00:59:26;5.00;99.90
61912;DHT22;49973;52.084;5.412;2022-11-14T01:02:13;5.00;99.90
61912;DHT22;49973;52.084;5.412;2022-11-14T01:05:02;5.00;99.90
61912;DHT22;49973;52.084;5.412;2022-11-14T01:07:49;5.00;99.90
61912;DHT22;49973;52.084;5.412;2022-11-14T01:10:39;5.00;99.90
61912;DHT22;49973;52.084;5.412;2022-11-14T01:13:30;5.00;99.90
61912;DHT22;49973;52.084;5.412;2022-11-14T01:16:17;5.00;99.90
61912;DHT22;49973;52.084;5.412;2022-11-14T01:19:05;5.00;99.90
61912;DHT22;49973;52.084;5.412;2022-11-14T01:21:53;5.00;99.90
61912;DHT22;49973;52.084;5.412;2022-11-14T01:24:41;5.00;99.90
61912;DHT22;49973;52.084;5.412;2022-11-14T01:27:30;4.90;99.90
61912;DHT22;49973;52.084;5.412;2022-11-14T01:30:17;4.90;99.90
61912;DHT22;49973;52.084;5.412;2022-11-14T01:33:04;4.90;99.90
61912;DHT22;49973;52.084;5.412;2022-11-14T01:35:52;4.90;99.90
61912;DHT22;49973;52.084;5.412;2022-11-14T01:38:40;4.90;99.90
61912;DHT22;49973;52.084;5.412;2022-11-14T01:41:27;4.90;99.90
61912;DHT22;49973;52.084;5.412;2022-11-14T01:44:17;4.80;99.90
61912;DHT22;49973;52.084;5.412;2022-11-14T01:47:04;4.80;99.90
61912;DHT22;49973;52.084;5.412;2022-11-14T01:49:54;4.80;99.90
61912;DHT22;49973;52.084;5.412;2022-11-14T01:52:44;4.80;99.90
61912;DHT22;49973;52.084;5.412;2022-11-14T01:55:32;4.80;99.90
61912;DHT22;49973;52.084;5.412;2022-11-14T01:58:20;4.80;99.90
61912;DHT22;49973;52.084;5.412;2022-11-14T02:01:07;4.80;99.90
61912;DHT22;49973;52.084;5.412;2022-11-14T02:03:55;4.80;99.90
61912;DHT22;49973;52.084;5.412;2022-11-14T02:06:43;4.70;99.90
61912;DHT22;49973;52.084;5.412;2022-11-14T02:09:35;4.70;99.90
61912;DHT22;49973;52.084;5.412;2022-11-14T02:12:24;4.60;99.90
61912;DHT22;49973;52.084;5.412;2022-11-14T02:15:12;4.50;99.90
61912;DHT22;49973;52.084;5.412;2022-11-14T02:18:00;4.50;99.90
61912;DHT22;49973;52.084;5.412;2022-11-14T02:20:48;4.40;99.90
61912;DHT22;49973;52.084;5.412;2022-11-14T02:23:35;4.30;99.90
61912;DHT22;49973;52.084;5.412;2022-11-14T02:26:23;4.20;99.90
61912;DHT22;49973;52.084;5.412;2022-11-14T02:29:10;4.20;99.90
61912;DHT22;49973;52.084;5.412;2022-11-14T02:31:57;4.10;99.90
61912;DHT22;49973;52.084;5.412;2022-11-14T02:34:44;4.00;99.90
61912;DHT22;49973;52.084;5.412;2022-11-14T02:37:33;3.90;99.90
61912;DHT22;49973;52.084;5.412;2022-11-14T02:40:20;3.90;99.90
61912;DHT22;49973;52.084;5.412;2022-11-14T02:43:07;3.80;99.90
61912;DHT22;49973;52.084;5.412;2022-11-14T02:45:54;3.70;99.90
61912;DHT22;49973;52.084;5.412;2022-11-14T02:48:47;3.70;99.90
61912;DHT22;49973;52.084;5.412;2022-11-14T02:51:34;3.70;99.90
61912;DHT22;49973;52.084;5.412;2022-11-14T02:54:23;3.60;99.90
61912;DHT22;49973;52.084;5.412;2022-11-14T02:57:10;3.60;99.90
61912;DHT22;49973;52.084;5.412;2022-11-14T02:59:57;3.60;99.90
61912;DHT22;49973;52.084;5.412;2022-11-14T03:02:44;3.50;99.90
61912;DHT22;49973;52.084;5.412;2022-11-14T03:05:31;3.50;99.90
61912;DHT22;49973;52.084;5.412;2022-11-14T03:08:19;3.40;99.90
61912;DHT22;49973;52.084;5.412;2022-11-14T03:11:09;3.40;99.90
61912;DHT22;49973;52.084;5.412;2022-11-14T03:13:56;3.30;99.90
61912;DHT22;49973;52.084;5.412;2022-11-14T03:16:42;3.30;99.90
61912;DHT22;49973;52.084;5.412;2022-11-14T03:19:30;3.20;99.90
61912;DHT22;49973;52.084;5.412;2022-11-14T03:22:17;3.10;99.90
61912;DHT22;49973;52.084;5.412;2022-11-14T03:25:04;3.10;99.90
61912;DHT22;49973;52.084;5.412;2022-11-14T03:27:53;3.10;99.90
61912;DHT22;49973;52.084;5.412;2022-11-14T03:30:40;3.10;99.90
61912;DHT22;49973;52.084;5.412;2022-11-14T03:33:27;3.10;99.90
61912;DHT22;49973;52.084;5.412;2022-11-14T03:36:14;3.10;99.90
61912;DHT22;49973;52.084;5.412;2022-11-14T03:39:02;3.20;99.90
61912;DHT22;49973;52.084;5.412;2022-11-14T03:41:49;3.10;99.90
61912;DHT22;49973;52.084;5.412;2022-11-14T03:44:38;3.10;99.90
61912;DHT22;49973;52.084;5.412;2022-11-14T03:47:25;3.00;99.90
61912;DHT22;49973;52.084;5.412;2022-11-14T03:50:12;3.00;99.90
61912;DHT22;49973;52.084;5.412;2022-11-14T03:52:59;3.00;99.90
61912;DHT22;49973;52.084;5.412;2022-11-14T03:55:46;3.00;99.90
61912;DHT22;49973;52.084;5.412;2022-11-14T03:58:33;3.00;99.90
61912;DHT22;49973;52.084;5.412;2022-11-14T04:01:21;3.00;99.90
61912;DHT22;49973;52.084;5.412;2022-11-14T04:04:10;3.00;99.90
61912;DHT22;49973;52.084;5.412;2022-11-14T04:06:57;3.00;99.90
61912;DHT22;49973;52.084;5.412;2022-11-14T04:09:45;3.00;99.90
61912;DHT22;49973;52.084;5.412;2022-11-14T04:12:32;2.90;99.90
61912;DHT22;49973;52.084;5.412;2022-11-14T04:15:19;2.90;99.90
61912;DHT22;49973;52.084;5.412;2022-11-14T04:18:08;2.90;99.90
61912;DHT22;49973;52.084;5.412;2022-11-14T04:20:55;2.90;99.90
61912;DHT22;49973;52.084;5.412;2022-11-14T04:23:42;2.90;99.90
61912;DHT22;49973;52.084;5.412;2022-11-14T04:26:29;2.90;99.90
61912;DHT22;49973;52.084;5.412;2022-11-14T04:29:16;2.80;99.90
61912;DHT22;49973;52.084;5.412;2022-11-14T04:32:03;2.80;99.90
61912;DHT22;49973;52.084;5.412;2022-11-14T04:34:52;2.70;99.90
61912;DHT22;49973;52.084;5.412;2022-11-14T04:37:39;2.70;99.90
61912;DHT22;49973;52.084;5.412;2022-11-14T04:40:26;2.60;99.90
61912;DHT22;49973;52.084;5.412;2022-11-14T04:43:13;2.60;99.90
61912;DHT22;49973;52.084;5.412;2022-11-14T04:46:00;2.60;99.90
61912;DHT22;49973;52.084;5.412;2022-11-14T04:48:47;2.60;99.90
61912;DHT22;49973;52.084;5.412;2022-11-14T04:51:35;2.50;99.90
61912;DHT22;49973;52.084;5.412;2022-11-14T04:54:23;2.40;99.90
61912;DHT22;49973;52.084;5.412;2022-11-14T04:57:10;2.40;99.90
61912;DHT22;49973;52.084;5.412;2022-11-14T04:59:57;2.40;99.90
61912;DHT22;49973;52.084;5.412;2022-11-14T05:02:44;2.30;99.90
61912;DHT22;49973;52.084;5.412;2022-11-14T05:05:30;2.30;99.90
61912;DHT22;49973;52.084;5.412;2022-11-14T05:08:24;2.20;99.90
61912;DHT22;49973;52.084;5.412;2022-11-14T05:11:13;2.20;99.90
61912;DHT22;49973;52.084;5.412;2022-11-14T05:14:01;2.20;99.90
61912;DHT22;49973;52.084;5.412;2022-11-14T05:16:48;2.10;99.90
61912;DHT22;49973;52.084;5.412;2022-11-14T05:19:35;2.10;99.90
61912;DHT22;49973;52.084;5.412;2022-11-14T05:22:23;2.00;99.90
61912;DHT22;49973;52.084;5.412;2022-11-14T05:25:11;2.00;99.90
61912;DHT22;49973;52.084;5.412;2022-11-14T05:27:58;2.00;99.90
61912;DHT22;49973;52.084;5.412;2022-11-14T05:30:45;2.00;99.90
61912;DHT22;49973;52.084;5.412;2022-11-14T05:33:33;1.90;99.90
61912;DHT22;49973;52.084;5.412;2022-11-14T05:36:20;1.90;99.90
61912;DHT22;49973;52.084;5.412;2022-11-14T05:39:07;1.90;99.90
61912;DHT22;49973;52.084;5.412;2022-11-14T05:41:55;1.80;99.90
61912;DHT22;49973;52.084;5.412;2022-11-14T05:44:42;1.70;99.90
61912;DHT22;49973;52.084;5.412;2022-11-14T05:47:29;1.70;99.90
61912;DHT22;49973;52.084;5.412;2022-11-14T05:50:16;1.70;99.90
61912;DHT22;49973;52.084;5.412;2022-11-14T05:53:03;1.60;99.90
61912;DHT22;49973;52.084;5.412;2022-11-14T05:55:50;1.60;99.90
61912;DHT22;49973;52.084;5.412;2022-11-14T05:58:39;1.60;99.90
61912;DHT22;49973;52.084;5.412;2022-11-14T06:01:27;1.60;99.90
61912;DHT22;49973;52.084;5.412;2022-11-14T06:04:14;1.60;99.90
61912;DHT22;49973;52.084;5.412;2022-11-14T06:07:01;1.60;99.90
61912;DHT22;49973;52.084;5.412;2022-11-14T06:09:48;1.60;99.90
61912;DHT22;49973;52.084;5.412;2022-11-14T06:12:35;1.50;99.90
61912;DHT22;49973;52.084;5.412;2022-11-14T06:15:23;1.50;99.90
61912;DHT22;49973;52.084;5.412;2022-11-14T06:18:11;1.50;99.90
61912;DHT22;49973;52.084;5.412;2022-11-14T06:20:59;1.50;99.90
61912;DHT22;49973;52.084;5.412;2022-11-14T06:23:47;1.50;99.90
61912;DHT22;49973;52.084;5.412;2022-11-14T06:26:35;1.40;99.90
61912;DHT22;49973;52.084;5.412;2022-11-14T06:29:22;1.40;99.90
61912;DHT22;49973;52.084;5.412;2022-11-14T06:32:11;1.40;99.90
61912;DHT22;49973;52.084;5.412;2022-11-14T06:34:58;1.40;99.90
61912;DHT22;49973;52.084;5.412;2022-11-14T06:37:45;1.40;99.90
61912;DHT22;49973;52.084;5.412;2022-11-14T06:40:32;1.40;99.90
61912;DHT22;49973;52.084;5.412;2022-11-14T06:43:20;1.40;99.90
61912;DHT22;49973;52.084;5.412;2022-11-14T06:46:09;1.40;99.90
61912;DHT22;49973;52.084;5.412;2022-11-14T06:48:58;1.40;99.90
61912;DHT22;49973;52.084;5.412;2022-11-14T06:51:45;1.40;99.90
61912;DHT22;49973;52.084;5.412;2022-11-14T06:54:35;1.40;99.90
61912;DHT22;49973;52.084;5.412;2022-11-14T06:57:23;1.30;99.90
61912;DHT22;49973;52.084;5.412;2022-11-14T07:00:11;1.30;99.90
61912;DHT22;49973;52.084;5.412;2022-11-14T07:02:58;1.30;99.90
61912;DHT22;49973;52.084;5.412;2022-11-14T07:05:47;1.30;99.90
61912;DHT22;49973;52.084;5.412;2022-11-14T07:08:34;1.30;99.90
61912;DHT22;49973;52.084;5.412;2022-11-14T07:11:23;1.30;99.90
61912;DHT22;49973;52.084;5.412;2022-11-14T07:14:12;1.40;99.90
61912;DHT22;49973;52.084;5.412;2022-11-14T07:16:59;1.40;99.90
61912;DHT22;49973;52.084;5.412;2022-11-14T07:19:47;1.40;99.90
61912;DHT22;49973;52.084;5.412;2022-11-14T07:22:35;1.40;99.90
61912;DHT22;49973;52.084;5.412;2022-11-14T07:25:23;1.50;99.90
61912;DHT22;49973;52.084;5.412;2022-11-14T07:28:10;1.50;99.90
61912;DHT22;49973;52.084;5.412;2022-11-14T07:30:57;1.50;99.90
61912;DHT22;49973;52.084;5.412;2022-11-14T07:33:45;1.50;99.90
61912;DHT22;49973;52.084;5.412;2022-11-14T07:36:32;1.60;99.90
61912;DHT22;49973;52.084;5.412;2022-11-14T07:39:21;1.60;99.90
61912;DHT22;49973;52.084;5.412;2022-11-14T07:42:08;1.60;99.90
61912;DHT22;49973;52.084;5.412;2022-11-14T07:44:55;1.70;99.90
61912;DHT22;49973;52.084;5.412;2022-11-14T07:47:42;1.80;99.90
61912;DHT22;49973;52.084;5.412;2022-11-14T07:50:29;1.80;99.90
61912;DHT22;49973;52.084;5.412;2022-11-14T07:53:17;1.90;99.90
61912;DHT22;49973;52.084;5.412;2022-11-14T07:56:07;1.90;99.90
61912;DHT22;49973;52.084;5.412;2022-11-14T07:58:56;2.00;99.90
61912;DHT22;49973;52.084;5.412;2022-11-14T08:01:44;2.10;99.90
61912;DHT22;49973;52.084;5.412;2022-11-14T08:04:31;2.10;99.90
61912;DHT22;49973;52.084;5.412;2022-11-14T08:07:17;2.20;99.90
61912;DHT22;49973;52.084;5.412;2022-11-14T08:10:06;2.30;99.90
61912;DHT22;49973;52.084;5.412;2022-11-14T08:12:58;2.40;99.90
61912;DHT22;49973;52.084;5.412;2022-11-14T08:16:07;2.50;99.90
61912;DHT22;49973;52.084;5.412;2022-11-14T08:18:58;2.60;99.90
61912;DHT22;49973;52.084;5.412;2022-11-14T08:21:46;2.70;99.90
61912;DHT22;49973;52.084;5.412;2022-11-14T08:24:33;2.90;99.90
61912;DHT22;49973;52.084;5.412;2022-11-14T08:27:20;3.00;99.90
61912;DHT22;49973;52.084;5.412;2022-11-14T08:30:11;3.20;99.90
61912;DHT22;49973;52.084;5.412;2022-11-14T08:33:00;3.30;99.90
61912;DHT22;49973;52.084;5.412;2022-11-14T08:35:48;3.40;99.90
61912;DHT22;49973;52.084;5.412;2022-11-14T08:38:35;3.60;99.90
61912;DHT22;49973;52.084;5.412;2022-11-14T08:41:23;3.70;99.90
61912;DHT22;49973;52.084;5.412;2022-11-14T08:44:10;3.80;99.90
61912;DHT22;49973;52.084;5.412;2022-11-14T08:46:58;3.90;99.90
61912;DHT22;49973;52.084;5.412;2022-11-14T08:49:46;4.00;99.90
61912;DHT22;49973;52.084;5.412;2022-11-14T08:52:33;4.20;99.90
61912;DHT22;49973;52.084;5.412;2022-11-14T08:55:20;4.30;99.90
61912;DHT22;49973;52.084;5.412;2022-11-14T08:58:07;4.40;99.90
61912;DHT22;49973;52.084;5.412;2022-11-14T09:00:58;4.50;99.90
61912;DHT22;49973;52.084;5.412;2022-11-14T09:03:47;4.60;99.90
61912;DHT22;49973;52.084;5.412;2022-11-14T09:06:40;4.70;99.90
61912;DHT22;49973;52.084;5.412;2022-11-14T09:09:28;4.80;99.90
61912;DHT22;49973;52.084;5.412;2022-11-14T09:12:14;5.00;99.90
61912;DHT22;49973;52.084;5.412;2022-11-14T09:15:03;5.00;99.90
61912;DHT22;49973;52.084;5.412;2022-11-14T09:17:52;5.00;99.90
61912;DHT22;49973;52.084;5.412;2022-11-14T09:20:40;5.10;99.90
61912;DHT22;49973;52.084;5.412;2022-11-14T09:23:28;5.30;99.90
61912;DHT22;49973;52.084;5.412;2022-11-14T09:26:16;5.40;99.90
61912;DHT22;49973;52.084;5.412;2022-11-14T09:29:04;5.50;99.90
61912;DHT22;49973;52.084;5.412;2022-11-14T09:31:51;5.70;99.90
61912;DHT22;49973;52.084;5.412;2022-11-14T09:34:39;5.80;99.90
61912;DHT22;49973;52.084;5.412;2022-11-14T09:37:32;6.00;99.90
61912;DHT22;49973;52.084;5.412;2022-11-14T09:40:19;6.20;99.90
61912;DHT22;49973;52.084;5.412;2022-11-14T09:43:22;6.30;99.90
61912;DHT22;49973;52.084;5.412;2022-11-14T09:46:17;6.40;99.90
61912;DHT22;49973;52.084;5.412;2022-11-14T09:49:10;6.50;99.90
61912;DHT22;49973;52.084;5.412;2022-11-14T09:52:10;6.70;99.90
61912;DHT22;49973;52.084;5.412;2022-11-14T09:55:03;6.80;99.90
61912;DHT22;49973;52.084;5.412;2022-11-14T09:57:55;6.80;99.90
61912;DHT22;49973;52.084;5.412;2022-11-14T10:00:47;6.90;99.90
61912;DHT22;49973;52.084;5.412;2022-11-14T10:03:44;7.00;99.90
61912;DHT22;49973;52.084;5.412;2022-11-14T10:06:35;7.10;99.90
61912;DHT22;49973;52.084;5.412;2022-11-14T10:09:36;7.10;99.90
61912;DHT22;49973;52.084;5.412;2022-11-14T10:12:36;7.20;99.90
61912;DHT22;49973;52.084;5.412;2022-11-14T10:15:30;7.40;99.90
61912;DHT22;49973;52.084;5.412;2022-11-14T10:18:34;7.40;99.90
61912;DHT22;49973;52.084;5.412;2022-11-14T10:21:34;7.50;99.90
61912;DHT22;49973;52.084;5.412;2022-11-14T10:24:35;7.60;99.90
61912;DHT22;49973;52.084;5.412;2022-11-14T10:27:28;7.60;99.90
61912;DHT22;49973;52.084;5.412;2022-11-14T10:30:17;7.70;99.90
61912;DHT22;49973;52.084;5.412;2022-11-14T10:33:19;7.70;99.90
61912;DHT22;49973;52.084;5.412;2022-11-14T10:36:16;7.80;99.90
61912;DHT22;49973;52.084;5.412;2022-11-14T10:39:12;7.90;99.90
61912;DHT22;49973;52.084;5.412;2022-11-14T10:42:09;8.00;99.90
61912;DHT22;49973;52.084;5.412;2022-11-14T10:45:02;8.00;99.90
61912;DHT22;49973;52.084;5.412;2022-11-14T10:47:55;8.00;99.90
61912;DHT22;49973;52.084;5.412;2022-11-14T10:50:47;8.10;99.90
61912;DHT22;49973;52.084;5.412;2022-11-14T10:53:42;8.10;99.90
61912;DHT22;49973;52.084;5.412;2022-11-14T10:56:31;8.20;99.90
61912;DHT22;49973;52.084;5.412;2022-11-14T10:59:19;8.30;99.90
61912;DHT22;49973;52.084;5.412;2022-11-14T11:02:08;8.30;99.90
61912;DHT22;49973;52.084;5.412;2022-11-14T11:05:10;8.30;99.90
61912;DHT22;49973;52.084;5.412;2022-11-14T11:07:59;8.30;99.90
61912;DHT22;49973;52.084;5.412;2022-11-14T11:11:24;8.30;99.90
61912;DHT22;49973;52.084;5.412;2022-11-14T11:14:18;8.40;99.90
61912;DHT22;49973;52.084;5.412;2022-11-14T11:17:17;8.40;99.90
61912;DHT22;49973;52.084;5.412;2022-11-14T11:20:24;8.50;99.90
61912;DHT22;49973;52.084;5.412;2022-11-14T11:23:25;8.50;99.90
61912;DHT22;49973;52.084;5.412;2022-11-14T11:26:18;8.60;99.90
61912;DHT22;49973;52.084;5.412;2022-11-14T11:29:14;8.60;99.90
61912;DHT22;49973;52.084;5.412;2022-11-14T11:32:01;8.60;99.90
61912;DHT22;49973;52.084;5.412;2022-11-14T11:34:50;8.70;99.90
61912;DHT22;49973;52.084;5.412;2022-11-14T11:37:43;8.70;99.90
61912;DHT22;49973;52.084;5.412;2022-11-14T11:40:30;8.70;99.90
61912;DHT22;49973;52.084;5.412;2022-11-14T11:43:25;8.70;99.90
61912;DHT22;49973;52.084;5.412;2022-11-14T11:46:45;8.80;99.90
61912;DHT22;49973;52.084;5.412;2022-11-14T11:49:42;8.80;99.90
61912;DHT22;49973;52.084;5.412;2022-11-14T11:52:47;8.80;99.90
61912;DHT22;49973;52.084;5.412;2022-11-14T11:55:39;8.90;99.90
61912;DHT22;49973;52.084;5.412;2022-11-14T11:58:31;8.90;99.90
61912;DHT22;49973;52.084;5.412;2022-11-14T12:01:22;8.90;99.90
61912;DHT22;49973;52.084;5.412;2022-11-14T12:04:10;8.90;99.90
61912;DHT22;49973;52.084;5.412;2022-11-14T12:07:03;9.00;99.90
61912;DHT22;49973;52.084;5.412;2022-11-14T12:09:54;9.00;99.90
61912;DHT22;49973;52.084;5.412;2022-11-14T12:13:27;9.00;99.90
61912;DHT22;49973;52.084;5.412;2022-11-14T12:16:53;9.10;99.90
61912;DHT22;49973;52.084;5.412;2022-11-14T12:20:05;9.10;99.90
61912;DHT22;49973;52.084;5.412;2022-11-14T12:29:48;9.30;99.90
61912;DHT22;49973;52.084;5.412;2022-11-14T12:32:41;9.30;99.90
61912;DHT22;49973;52.084;5.412;2022-11-14T12:35:32;9.40;99.90
61912;DHT22;49973;52.084;5.412;2022-11-14T12:38:20;9.40;99.90
61912;DHT22;49973;52.084;5.412;2022-11-14T12:41:09;9.50;99.90
61912;DHT22;49973;52.084;5.412;2022-11-14T12:44:18;9.50;99.90
61912;DHT22;49973;52.084;5.412;2022-11-14T12:47:16;9.50;99.90
61912;DHT22;49973;52.084;5.412;2022-11-14T12:50:26;9.60;99.90
61912;DHT22;49973;52.084;5.412;2022-11-14T12:53:38;9.50;99.90
61912;DHT22;49973;52.084;5.412;2022-11-14T12:56:51;9.50;99.90
61912;DHT22;49973;52.084;5.412;2022-11-14T12:59:48;9.40;99.90
61912;DHT22;49973;52.084;5.412;2022-11-14T13:03:07;9.40;99.90
61912;DHT22;49973;52.084;5.412;2022-11-14T13:06:02;9.20;99.90
61912;DHT22;49973;52.084;5.412;2022-11-14T13:09:31;9.20;99.90
61912;DHT22;49973;52.084;5.412;2022-11-14T13:12:35;9.10;99.90
61912;DHT22;49973;52.084;5.412;2022-11-14T13:15:48;9.00;99.90
61912;DHT22;49973;52.084;5.412;2022-11-14T13:18:57;8.90;99.90
61912;DHT22;49973;52.084;5.412;2022-11-14T13:22:35;8.80;99.90
61912;DHT22;49973;52.084;5.412;2022-11-14T13:25:24;8.80;99.90
61912;DHT22;49973;52.084;5.412;2022-11-14T13:28:42;8.80;99.90
61912;DHT22;49973;52.084;5.412;2022-11-14T13:31:45;8.70;99.90
61912;DHT22;49973;52.084;5.412;2022-11-14T13:34:50;8.70;99.90
61912;DHT22;49973;52.084;5.412;2022-11-14T13:37:59;8.70;99.90
61912;DHT22;49973;52.084;5.412;2022-11-14T13:40:58;8.70;99.90
61912;DHT22;49973;52.084;5.412;2022-11-14T13:44:00;8.70;99.90
61912;DHT22;49973;52.084;5.412;2022-11-14T13:47:02;8.70;99.90
61912;DHT22;49973;52.084;5.412;2022-11-14T13:49:59;8.60;99.90
61912;DHT22;49973;52.084;5.412;2022-11-14T13:52:48;8.60;99.90
61912;DHT22;49973;52.084;5.412;2022-11-14T13:55:48;8.60;99.90
61912;DHT22;49973;52.084;5.412;2022-11-14T13:58:51;8.60;99.90
61912;DHT22;49973;52.084;5.412;2022-11-14T14:01:59;8.60;99.90
61912;DHT22;49973;52.084;5.412;2022-11-14T14:04:57;8.60;99.90
61912;DHT22;49973;52.084;5.412;2022-11-14T14:08:01;8.70;99.90
61912;DHT22;49973;52.084;5.412;2022-11-14T14:10:59;8.70;99.90
61912;DHT22;49973;52.084;5.412;2022-11-14T14:13:58;8.70;99.90
61912;DHT22;49973;52.084;5.412;2022-11-14T14:16:51;8.70;99.90
61912;DHT22;49973;52.084;5.412;2022-11-14T14:19:53;8.70;99.90
61912;DHT22;49973;52.084;5.412;2022-11-14T14:22:52;8.70;99.90
61912;DHT22;49973;52.084;5.412;2022-11-14T14:25:49;8.60;99.90
61912;DHT22;49973;52.084;5.412;2022-11-14T14:28:43;8.60;99.90
61912;DHT22;49973;52.084;5.412;2022-11-14T14:31:35;8.60;99.90
61912;DHT22;49973;52.084;5.412;2022-11-14T14:34:25;8.60;99.90
61912;DHT22;49973;52.084;5.412;2022-11-14T14:37:17;8.60;99.90
61912;DHT22;49973;52.084;5.412;2022-11-14T14:40:22;8.60;99.90
61912;DHT22;49973;52.084;5.412;2022-11-14T14:43:24;8.50;99.90
61912;DHT22;49973;52.084;5.412;2022-11-14T14:46:13;8.60;99.90
61912;DHT22;49973;52.084;5.412;2022-11-14T14:49:02;8.50;99.90
61912;DHT22;49973;52.084;5.412;2022-11-14T14:51:50;8.50;99.90
61912;DHT22;49973;52.084;5.412;2022-11-14T14:54:53;8.50;99.90
61912;DHT22;49973;52.084;5.412;2022-11-14T14:57:42;8.50;99.90
61912;DHT22;49973;52.084;5.412;2022-11-14T15:00:29;8.50;99.90
61912;DHT22;49973;52.084;5.412;2022-11-14T15:03:16;8.40;99.90
61912;DHT22;49973;52.084;5.412;2022-11-14T15:06:16;8.40;99.90
61912;DHT22;49973;52.084;5.412;2022-11-14T15:09:08;8.30;99.90
61912;DHT22;49973;52.084;5.412;2022-11-14T15:11:58;8.30;99.90
61912;DHT22;49973;52.084;5.412;2022-11-14T15:14:48;8.30;99.90
61912;DHT22;49973;52.084;5.412;2022-11-14T15:17:35;8.20;99.90
61912;DHT22;49973;52.084;5.412;2022-11-14T15:20:24;8.20;99.90
61912;DHT22;49973;52.084;5.412;2022-11-14T15:23:18;8.20;99.90
61912;DHT22;49973;52.084;5.412;2022-11-14T15:26:12;8.20;99.90
61912;DHT22;49973;52.084;5.412;2022-11-14T15:29:05;8.20;99.90
61912;DHT22;49973;52.084;5.412;2022-11-14T15:31:55;8.20;99.90
61912;DHT22;49973;52.084;5.412;2022-11-14T15:34:56;8.30;99.90
61912;DHT22;49973;52.084;5.412;2022-11-14T15:38:03;8.20;99.90
61912;DHT22;49973;52.084;5.412;2022-11-14T15:41:19;8.20;99.90
61912;DHT22;49973;52.084;5.412;2022-11-14T15:44:27;8.20;99.90
61912;DHT22;49973;52.084;5.412;2022-11-14T15:47:21;8.20;99.90
61912;DHT22;49973;52.084;5.412;2022-11-14T15:50:24;8.20;99.90
61912;DHT22;49973;52.084;5.412;2022-11-14T15:53:20;8.20;99.90
61912;DHT22;49973;52.084;5.412;2022-11-14T15:56:10;8.10;99.90
61912;DHT22;49973;52.084;5.412;2022-11-14T15:58:58;8.00;99.90
61912;DHT22;49973;52.084;5.412;2022-11-14T16:01:49;7.90;99.90
61912;DHT22;49973;52.084;5.412;2022-11-14T16:04:38;7.80;99.90
61912;DHT22;49973;52.084;5.412;2022-11-14T16:07:32;7.80;99.90
61912;DHT22;49973;52.084;5.412;2022-11-14T16:10:21;7.70;99.90
61912;DHT22;49973;52.084;5.412;2022-11-14T16:13:09;7.60;99.90
61912;DHT22;49973;52.084;5.412;2022-11-14T16:15:56;7.50;99.90
61912;DHT22;49973;52.084;5.412;2022-11-14T16:18:43;7.40;99.90
61912;DHT22;49973;52.084;5.412;2022-11-14T16:21:32;7.30;99.90
61912;DHT22;49973;52.084;5.412;2022-11-14T16:24:21;7.30;99.90
61912;DHT22;49973;52.084;5.412;2022-11-14T16:27:09;7.20;99.90
61912;DHT22;49973;52.084;5.412;2022-11-14T16:29:55;7.10;99.90
61912;DHT22;49973;52.084;5.412;2022-11-14T16:32:43;7.00;99.90
61912;DHT22;49973;52.084;5.412;2022-11-14T16:35:31;7.00;99.90
61912;DHT22;49973;52.084;5.412;2022-11-14T16:38:19;6.90;99.90
61912;DHT22;49973;52.084;5.412;2022-11-14T16:41:06;6.90;99.90
61912;DHT22;49973;52.084;5.412;2022-11-14T16:43:54;6.80;99.90
61912;DHT22;49973;52.084;5.412;2022-11-14T16:46:42;6.70;99.90
61912;DHT22;49973;52.084;5.412;2022-11-14T16:49:29;6.70;99.90
61912;DHT22;49973;52.084;5.412;2022-11-14T16:52:16;6.60;99.90
61912;DHT22;49973;52.084;5.412;2022-11-14T16:55:07;6.50;99.90
61912;DHT22;49973;52.084;5.412;2022-11-14T16:57:54;6.50;99.90
61912;DHT22;49973;52.084;5.412;2022-11-14T17:00:41;6.40;99.90
61912;DHT22;49973;52.084;5.412;2022-11-14T17:03:30;6.40;99.90
61912;DHT22;49973;52.084;5.412;2022-11-14T17:06:18;6.30;99.90
61912;DHT22;49973;52.084;5.412;2022-11-14T17:09:06;6.30;99.90
61912;DHT22;49973;52.084;5.412;2022-11-14T17:11:54;6.20;99.90
61912;DHT22;49973;52.084;5.412;2022-11-14T17:14:41;6.20;99.90
61912;DHT22;49973;52.084;5.412;2022-11-14T17:17:28;6.10;99.90
61912;DHT22;49973;52.084;5.412;2022-11-14T17:20:16;6.10;99.90
61912;DHT22;49973;52.084;5.412;2022-11-14T17:23:04;6.00;99.90
61912;DHT22;49973;52.084;5.412;2022-11-14T17:25:51;6.00;99.90
61912;DHT22;49973;52.084;5.412;2022-11-14T17:28:40;6.00;99.90
61912;DHT22;49973;52.084;5.412;2022-11-14T17:31:28;5.90;99.90
61912;DHT22;49973;52.084;5.412;2022-11-14T17:34:22;5.90;99.90
61912;DHT22;49973;52.084;5.412;2022-11-14T17:37:08;5.80;99.90
61912;DHT22;49973;52.084;5.412;2022-11-14T17:39:56;5.80;99.90
61912;DHT22;49973;52.084;5.412;2022-11-14T17:42:43;5.80;99.90
61912;DHT22;49973;52.084;5.412;2022-11-14T17:45:32;5.70;99.90
61912;DHT22;49973;52.084;5.412;2022-11-14T17:48:25;5.70;99.90
61912;DHT22;49973;52.084;5.412;2022-11-14T17:51:14;5.70;99.90
61912;DHT22;49973;52.084;5.412;2022-11-14T17:54:01;5.60;99.90
61912;DHT22;49973;52.084;5.412;2022-11-14T17:56:48;5.60;99.90
61912;DHT22;49973;52.084;5.412;2022-11-14T17:59:40;5.60;99.90
61912;DHT22;49973;52.084;5.412;2022-11-14T18:02:28;5.60;99.90
61912;DHT22;49973;52.084;5.412;2022-11-14T18:05:15;5.60;99.90
61912;DHT22;49973;52.084;5.412;2022-11-14T18:08:03;5.50;99.90
61912;DHT22;49973;52.084;5.412;2022-11-14T18:10:50;5.50;99.90
61912;DHT22;49973;52.084;5.412;2022-11-14T18:13:38;5.50;99.90
61912;DHT22;49973;52.084;5.412;2022-11-14T18:16:26;5.50;99.90
61912;DHT22;49973;52.084;5.412;2022-11-14T18:19:34;5.50;99.90
61912;DHT22;49973;52.084;5.412;2022-11-14T18:22:22;5.50;99.90
61912;DHT22;49973;52.084;5.412;2022-11-14T18:25:09;5.50;99.90